Time;durP1;ratioP1;P1;durP2;ratioP2;P2;SDS_P1;SDS_P2;PMS_P1;PMS_P2;Temp;Humidity;BMP_temperature;BMP_pressure;BME280_temperature;BME280_humidity;BME280_pressure;Samples;Min_cycle;Max_cycle;Signal;HPM_P1;HPM_P2
2022/05/09 00:00:22;;;;;;;2.38;1.35;;;;;;;15.75;36.99;99553.69;5013129;28;20144;-68
2022/05/09 00:02:49;;;;;;;5.57;1.50;;;;;;;15.75;36.70;99557.19;5013172;28;20065;-68
2022/05/09 00:05:17;;;;;;;7.18;1.90;;;;;;;15.81;36.79;99542.19;5013021;28;20129;-68
2022/05/09 00:07:45;;;;;;;3.33;1.73;;;;;;;15.84;36.74;99539.13;5011810;28;20505;-67
2022/05/09 00:10:13;;;;;;;3.15;1.65;;;;;;;15.76;36.69;99542.78;4995408;28;20563;-67
2022/05/09 00:12:39;;;;;;;2.05;1.40;;;;;;;15.67;36.50;99545.81;5011644;28;20057;-67
2022/05/09 00:15:09;;;;;;;2.15;1.42;;;;;;;15.78;36.74;99548.78;5011671;28;20447;-68
2022/05/09 00:17:35;;;;;;;4.18;1.48;;;;;;;15.63;37.03;99544.53;5013249;28;20064;-67
2022/05/09 00:20:00;;;;;;;1.80;1.30;;;;;;;15.65;36.88;99537.97;5032517;28;20140;-67
2022/05/09 00:22:26;;;;;;;4.03;1.70;;;;;;;15.66;36.89;99534.25;5031144;28;20493;-67
2022/05/09 00:24:52;;;;;;;4.82;1.20;;;;;;;15.68;36.77;99523.38;5032512;28;20493;-68
2022/05/09 00:27:18;;;;;;;4.57;1.85;;;;;;;15.75;36.85;99537.63;5032457;28;20045;-68
2022/05/09 00:29:43;;;;;;;3.28;1.48;;;;;;;15.72;36.90;99529.97;5031322;28;20041;-68
2022/05/09 00:32:09;;;;;;;1.73;1.10;;;;;;;15.73;36.80;99547.72;5030992;28;20077;-67
2022/05/09 00:34:37;;;;;;;2.75;1.60;;;;;;;15.68;36.91;99544.78;5031181;28;20393;-67
2022/05/09 00:37:04;;;;;;;1.15;1.02;;;;;;;15.66;37.06;99544.97;5014652;28;20116;-67
2022/05/09 00:39:31;;;;;;;3.70;1.60;;;;;;;15.69;37.26;99557.97;5014448;28;20045;-67
2022/05/09 00:42:12;;;;;;;8.40;1.50;;;;;;;15.75;37.24;99553.69;5014463;28;20489;-67
2022/05/09 00:44:38;;;;;;;3.17;1.30;;;;;;;15.58;37.33;99553.13;5032200;28;20095;-67
2022/05/09 00:47:06;;;;;;;4.03;1.35;;;;;;;15.62;37.30;99551.72;5032018;28;20041;-67
2022/05/09 00:49:32;;;;;;;3.40;1.40;;;;;;;15.67;37.35;99548.50;5014560;28;20054;-68
2022/05/09 00:52:00;;;;;;;3.47;1.92;;;;;;;15.75;37.42;99554.53;5031823;28;20045;-68
2022/05/09 00:54:32;;;;;;;1.75;1.40;;;;;;;15.76;37.48;99550.81;5030759;28;20519;-68
2022/05/09 00:57:09;;;;;;;3.80;1.60;;;;;;;15.78;37.65;99551.47;5031793;28;20049;-68
2022/05/09 00:59:36;;;;;;;3.63;1.67;;;;;;;15.54;37.92;99525.09;5030515;28;20573;-67
2022/05/09 01:02:02;;;;;;;3.45;1.52;;;;;;;15.60;37.95;99553.78;4997943;28;20073;-68
2022/05/09 01:04:30;;;;;;;3.35;1.55;;;;;;;15.70;38.04;99566.84;5014194;28;20041;-67
2022/05/09 01:06:57;;;;;;;2.95;1.73;;;;;;;15.61;38.25;99552.75;5030638;28;20052;-67
2022/05/09 01:09:23;;;;;;;2.38;1.70;;;;;;;15.53;38.19;99549.38;5014413;28;20042;-68
2022/05/09 01:11:49;;;;;;;3.25;1.63;;;;;;;15.55;38.39;99550.84;5031534;28;20087;-67
2022/05/09 01:14:24;;;;;;;2.33;1.30;;;;;;;15.70;38.42;99550.78;5030579;28;20041;-67
2022/05/09 01:16:51;;;;;;;2.65;1.70;;;;;;;15.53;38.25;99550.19;4997702;28;20041;-66
2022/05/09 01:19:33;;;;;;;2.80;1.70;;;;;;;15.67;38.60;99549.31;5014022;28;20072;-67
2022/05/09 01:22:00;;;;;;;5.03;1.83;;;;;;;15.57;38.72;99542.63;5029822;28;20132;-67
2022/05/09 01:24:28;;;;;;;2.65;1.77;;;;;;;15.53;38.70;99544.84;5014120;28;20041;-67
2022/05/09 01:26:54;;;;;;;4.05;1.55;;;;;;;15.46;38.86;99543.13;5031436;28;20060;-68
2022/05/09 01:29:23;;;;;;;4.80;1.50;;;;;;;15.64;39.00;99557.72;4997330;28;20541;-67
2022/05/09 01:31:51;;;;;;;2.35;1.85;;;;;;;15.62;39.12;99549.03;5030023;28;20053;-67
2022/05/09 01:34:17;;;;;;;3.55;2.33;;;;;;;15.50;39.07;99542.53;5030227;28;20041;-67
2022/05/09 01:36:44;;;;;;;3.78;1.90;;;;;;;15.68;38.82;99556.34;5029758;28;20041;-67
2022/05/09 01:39:12;;;;;;;6.13;2.92;;;;;;;15.71;39.00;99558.63;5029929;28;20053;-67
2022/05/09 01:41:43;;;;;;;5.10;2.75;;;;;;;15.80;39.31;99551.28;5029603;28;20110;-66
2022/05/09 01:44:10;;;;;;;2.70;1.95;;;;;;;15.65;39.16;99548.69;5030393;28;20525;-67
2022/05/09 01:49:29;;;;;;;8.00;2.70;;;;;;;15.70;39.15;99550.78;5029453;28;20172;-67
2022/05/09 01:49:30;;;;;;;4.35;1.98;;;;;;;15.62;39.12;99543.69;5030691;28;20049;-67
2022/05/09 01:51:57;;;;;;;8.57;2.38;;;;;;;15.74;39.04;99535.97;5029492;28;20072;-67
2022/05/09 01:54:23;;;;;;;3.22;1.88;;;;;;;15.66;39.12;99550.34;5029827;28;20045;-67
2022/05/09 01:56:48;;;;;;;4.53;2.30;;;;;;;15.66;38.98;99547.66;5030907;28;20033;-67
2022/05/09 01:59:14;;;;;;;4.95;2.10;;;;;;;15.63;39.06;99548.03;5029513;28;20414;-65
2022/05/09 02:01:50;;;;;;;4.43;2.92;;;;;;;15.78;39.14;99558.66;5030698;28;20046;-66
2022/05/09 02:04:17;;;;;;;5.00;2.05;;;;;;;15.66;39.12;99568.22;5013921;28;20041;-67
2022/05/09 02:06:43;;;;;;;3.60;1.95;;;;;;;15.62;39.35;99561.63;5029708;28;20175;-66
2022/05/09 02:09:09;;;;;;;7.15;3.72;;;;;;;15.62;39.44;99554.38;5013124;28;20119;-67
2022/05/09 02:11:35;;;;;;;3.35;1.90;;;;;;;15.62;39.14;99557.06;5029329;28;20413;-66
2022/05/09 02:14:01;;;;;;;5.10;2.70;;;;;;;15.71;39.12;99553.25;5013131;28;20168;-67
2022/05/09 02:16:27;;;;;;;4.13;2.17;;;;;;;15.63;38.98;99553.38;5030680;28;20072;-67
2022/05/09 02:18:53;;;;;;;3.67;2.28;;;;;;;15.60;39.16;99555.63;5012782;28;20509;-68
2022/05/09 02:21:19;;;;;;;2.72;1.85;;;;;;;15.58;38.85;99554.97;5029858;28;20081;-68
2022/05/09 02:23:45;;;;;;;2.65;1.80;;;;;;;15.50;38.53;99547.09;5029546;28;20045;-66
2022/05/09 02:26:11;;;;;;;6.72;2.90;;;;;;;15.53;38.73;99558.22;5029412;28;20421;-68
2022/05/09 02:28:37;;;;;;;8.05;2.13;;;;;;;15.56;38.58;99562.38;4980358;28;20042;-68
2022/05/09 02:31:02;;;;;;;3.22;1.88;;;;;;;15.37;38.55;99534.38;5030264;28;20085;-67
2022/05/09 02:33:31;;;;;;;2.90;1.52;;;;;;;15.64;38.35;99562.22;5030645;28;20500;-67
2022/05/09 02:35:57;;;;;;;4.70;2.00;;;;;;;15.53;38.36;99571.59;5030471;28;20088;-67
2022/05/09 02:38:27;;;;;;;4.38;2.50;;;;;;;15.76;37.79;99569.56;5012773;28;20077;-68
2022/05/09 02:40:55;;;;;;;4.13;2.15;;;;;;;15.65;37.88;99571.94;4997050;28;20044;-67
2022/05/09 02:43:26;;;;;;;5.65;2.00;;;;;;;15.58;37.79;99558.50;5030161;28;20519;-67
2022/05/09 02:45:52;;;;;;;4.05;1.92;;;;;;;15.63;37.42;99563.25;5030256;28;20405;-67
2022/05/09 02:48:17;;;;;;;4.57;2.00;;;;;;;15.59;37.54;99553.97;5030871;28;20041;-67
2022/05/09 02:50:43;;;;;;;2.78;2.00;;;;;;;15.60;37.52;99550.25;4980326;28;20052;-67
2022/05/09 02:53:10;;;;;;;2.75;1.90;;;;;;;15.56;37.31;99549.00;5013072;28;20124;-68
2022/05/09 02:55:36;;;;;;;3.55;2.00;;;;;;;15.58;37.05;99552.28;5032936;28;20120;-66
2022/05/09 02:58:03;;;;;;;3.42;1.50;;;;;;;15.54;36.97;99561.75;5016490;28;20136;-68
2022/05/09 03:00:31;;;;;;;4.18;1.73;;;;;;;15.57;36.69;99554.16;5016638;28;20465;-68
2022/05/09 03:05:42;;;;;;;4.90;1.80;;;;;;;15.78;36.28;99548.78;5032597;28;20103;-68
2022/05/09 03:08:10;;;;;;;3.63;1.83;;;;;;;15.78;36.15;99538.06;5033923;28;20041;-67
2022/05/09 03:10:37;;;;;;;2.55;1.60;;;;;;;15.80;35.87;99541.41;5032625;28;20099;-67
2022/05/09 03:13:04;;;;;;;3.60;2.08;;;;;;;15.83;35.94;99549.03;5032445;28;20047;-66
2022/05/09 03:15:34;;;;;;;3.53;1.65;;;;;;;15.90;35.51;99557.94;5015854;28;20049;-68
2022/05/09 03:17:59;;;;;;;6.50;1.88;;;;;;;15.81;35.44;99552.91;4999748;28;20057;-68
2022/05/09 03:20:25;;;;;;;6.60;1.60;;;;;;;15.85;35.07;99554.19;5033722;28;20103;-67
2022/05/09 03:22:51;;;;;;;4.47;1.52;;;;;;;15.69;34.58;99543.75;5016197;28;20037;-68
2022/05/09 03:25:18;;;;;;;4.65;1.55;;;;;;;15.83;34.12;99570.47;5015859;28;20049;-67
2022/05/09 03:27:44;;;;;;;2.53;1.50;;;;;;;15.77;33.89;99563.22;4999505;28;20041;-67
2022/05/09 03:30:11;;;;;;;1.48;1.20;;;;;;;15.78;33.91;99578.25;5033556;28;20042;-67
2022/05/09 03:32:38;;;;;;;1.52;1.23;;;;;;;15.56;33.97;99575.78;5015644;28;20527;-67
2022/05/09 03:35:06;;;;;;;5.85;1.52;;;;;;;15.70;33.74;99583.72;5033302;28;20045;-67
2022/05/09 03:37:32;;;;;;;2.70;1.17;;;;;;;15.62;33.47;99581.16;5033331;28;20095;-67
2022/05/09 03:39:57;;;;;;;2.90;1.08;;;;;;;15.50;33.46;99547.91;5033222;28;20048;-67
2022/05/09 03:42:23;;;;;;;3.80;1.70;;;;;;;15.73;33.26;99577.19;5032120;28;20037;-67
2022/05/09 03:44:49;;;;;;;2.88;1.20;;;;;;;15.77;33.49;99581.13;5032983;28;20045;-67
2022/05/09 03:47:15;;;;;;;4.03;1.30;;;;;;;15.95;33.21;99584.97;5031918;28;20072;-68
2022/05/09 03:49:41;;;;;;;1.67;1.13;;;;;;;15.91;33.32;99580.22;5015219;28;20045;-68
2022/05/09 03:52:07;;;;;;;2.70;0.98;;;;;;;15.83;33.14;99558.91;5015180;28;20524;-68
2022/05/09 03:54:33;;;;;;;3.10;1.40;;;;;;;15.99;33.04;99555.97;5031890;28;20538;-67
2022/05/09 03:56:59;;;;;;;4.35;1.17;;;;;;;16.02;32.98;99567.09;5015324;28;20041;-68
2022/05/09 03:59:24;;;;;;;2.38;1.50;;;;;;;16.21;32.98;99585.19;5032001;28;20148;-68
2022/05/09 04:01:50;;;;;;;2.72;1.40;;;;;;;16.27;33.45;99587.09;5031723;28;20041;-68
2022/05/09 04:04:16;;;;;;;4.97;2.30;;;;;;;16.23;33.41;99580.47;5031412;28;20045;-68
2022/05/09 04:06:42;;;;;;;5.40;1.60;;;;;;;16.25;33.34;99581.09;5014926;28;20045;-66
2022/05/09 04:09:07;;;;;;;2.83;1.60;;;;;;;16.22;33.64;99586.03;5032812;28;20052;-68
2022/05/09 04:11:33;;;;;;;4.00;1.67;;;;;;;16.09;33.70;99559.97;5014895;28;20049;-68
2022/05/09 04:13:59;;;;;;;4.47;1.90;;;;;;;16.25;33.77;99582.97;5015020;28;20056;-67
2022/05/09 04:19:09;;;;;;;2.55;1.95;;;;;;;16.31;33.76;99588.34;5031295;28;20103;-68
2022/05/09 04:21:34;;;;;;;2.35;1.58;;;;;;;16.28;33.67;99590.59;5032448;28;20049;-68
2022/05/09 04:24:02;;;;;;;4.00;1.92;;;;;;;16.20;33.85;99596.09;5014720;28;20461;-68
2022/05/09 04:26:32;;;;;;;2.90;1.42;;;;;;;16.30;33.93;99586.69;5015464;28;20068;-67
2022/05/09 04:28:59;;;;;;;4.40;1.90;;;;;;;16.06;34.05;99560.34;5032713;28;20050;-68
2022/05/09 04:31:26;;;;;;;2.88;1.42;;;;;;;16.11;34.34;99590.06;5014982;28;20139;-67
2022/05/09 04:33:52;;;;;;;2.85;1.45;;;;;;;16.03;34.10;99600.94;5032428;28;20037;-67
2022/05/09 04:36:23;;;;;;;4.25;1.40;;;;;;;16.06;34.27;99603.22;5031121;28;20037;-67
2022/05/09 04:38:51;;;;;;;5.55;1.50;;;;;;;16.00;nan;99590.59;5014699;28;20139;-68
2022/05/09 04:41:18;;;;;;;5.85;1.60;;;;;;;16.18;34.10;99607.03;5032186;28;20052;-67
2022/05/09 04:43:44;;;;;;;4.03;1.52;;;;;;;16.31;33.91;99601.75;4998083;28;20104;-67
2022/05/09 04:46:09;;;;;;;3.85;1.65;;;;;;;16.55;33.40;99609.38;5014413;28;20033;-67
2022/05/09 04:48:35;;;;;;;3.90;1.60;;;;;;;16.78;33.06;99609.94;5031844;28;20095;-67
2022/05/09 04:51:01;;;;;;;5.75;1.50;;;;;;;17.14;32.52;99615.06;5031730;28;20049;-67
2022/05/09 04:53:27;;;;;;;4.15;1.58;;;;;;;17.40;31.87;99595.50;5014308;28;20128;-67
2022/05/09 04:55:57;;;;;;;4.38;1.58;;;;;;;17.71;31.58;99611.94;4997656;28;20144;-67
2022/05/09 04:58:25;;;;;;;4.47;1.63;;;;;;;17.99;31.22;99617.97;4997838;28;20045;-68
2022/05/09 05:00:51;;;;;;;3.38;1.38;;;;;;;18.05;30.95;99609.91;5030471;28;20503;-67
2022/05/09 05:03:19;;;;;;;8.10;1.75;;;;;;;17.97;30.03;99591.31;5030773;28;20048;-68
2022/05/09 05:05:52;;;;;;;5.20;1.58;;;;;;;18.26;29.92;99617.78;5030412;28;20048;-68
2022/05/09 05:08:18;;;;;;;6.07;2.10;;;;;;;18.36;29.81;99611.94;5031540;28;20141;-67
2022/05/09 05:10:55;;;;;;;2.97;1.48;;;;;;;18.51;29.66;99612.59;5031474;28;20420;-68
2022/05/09 05:13:25;;;;;;;2.00;1.27;;;;;;;18.80;29.09;99620.22;4998259;28;20041;-67
2022/05/09 05:15:51;;;;;;;2.60;1.70;;;;;;;18.99;28.45;99615.81;5013788;28;20585;-68
2022/05/09 05:18:20;;;;;;;3.90;1.50;;;;;;;19.22;28.49;99616.94;5013155;28;20161;-68
2022/05/09 05:20:47;;;;;;;3.17;1.58;;;;;;;19.28;28.13;99626.88;4981494;28;20073;-68
2022/05/09 05:23:13;;;;;;;6.25;1.83;;;;;;;19.16;28.28;99620.47;5013643;28;20091;-68
2022/05/09 05:25:41;;;;;;;4.57;1.75;;;;;;;19.13;28.31;99623.59;5030299;28;20041;-68
2022/05/09 05:28:08;;;;;;;5.38;1.83;;;;;;;19.07;28.52;99627.16;5014117;28;20413;-68
2022/05/09 05:30:36;;;;;;;4.25;2.10;;;;;;;18.98;28.40;99625.75;5030167;28;20132;-68
2022/05/09 05:33:03;;;;;;;3.10;1.38;;;;;;;18.92;27.97;99588.91;5014114;28;20041;-68
2022/05/09 05:35:31;;;;;;;1.92;1.30;;;;;;;19.14;27.52;99598.34;5013916;28;20199;-67
2022/05/09 05:37:57;;;;;;;5.25;1.38;;;;;;;19.27;27.42;99625.25;4997053;28;20053;-67
2022/05/09 05:40:23;;;;;;;2.42;1.30;;;;;;;19.23;27.27;99602.44;5013416;28;20033;-68
2022/05/09 05:42:49;;;;;;;2.10;1.23;;;;;;;19.53;27.18;99617.03;5013518;28;20104;-68
2022/05/09 05:45:19;;;;;;;3.92;1.50;;;;;;;19.58;27.01;99621.75;4997092;28;20052;-67
2022/05/09 05:47:44;;;;;;;3.92;1.20;;;;;;;19.48;26.93;99608.75;5013402;28;20099;-68
2022/05/09 05:50:14;;;;;;;3.63;1.65;;;;;;;19.75;26.73;99622.91;5029618;28;20045;-68
2022/05/09 05:52:40;;;;;;;2.90;1.13;;;;;;;19.66;25.81;99627.75;5030864;28;20041;-67
2022/05/09 05:55:06;;;;;;;2.25;1.20;;;;;;;19.63;25.50;99627.34;5029557;28;20520;-67
2022/05/09 05:57:34;;;;;;;2.25;1.13;;;;;;;19.55;25.58;99617.66;5029954;28;20045;-67
2022/05/09 06:00:08;;;;;;;3.00;1.20;;;;;;;19.49;25.82;99620.38;5013172;28;20444;-67
2022/05/09 06:02:42;;;;;;;3.55;1.40;;;;;;;19.16;26.22;99598.94;5014148;28;20091;-67
2022/05/09 06:05:09;;;;;;;6.10;1.48;;;;;;;19.34;26.35;99617.94;5013280;28;20049;-68
2022/05/09 06:07:35;;;;;;;5.13;1.45;;;;;;;19.20;26.65;99624.41;5030440;28;20048;-67
2022/05/09 06:10:02;;;;;;;4.57;1.35;;;;;;;19.16;26.84;99622.38;5013308;28;20045;-67
2022/05/09 06:12:29;;;;;;;4.00;1.42;;;;;;;19.08;26.93;99615.34;5013250;28;20052;-67
2022/05/09 06:17:39;;;;;;;3.95;1.20;;;;;;;18.86;26.71;99622.06;5030581;28;20516;-68
2022/05/09 06:20:10;;;;;;;4.75;1.30;;;;;;;19.18;26.50;99631.88;5029360;28;20049;-68
2022/05/09 06:22:38;;;;;;;2.10;1.60;;;;;;;19.04;26.83;99641.03;5029312;28;20053;-68
2022/05/09 06:25:09;;;;;;;5.70;1.95;;;;;;;18.93;27.00;99633.59;5029569;28;20052;-67
2022/05/09 06:27:37;;;;;;;5.80;1.35;;;;;;;18.76;26.65;99618.97;5013339;28;20041;-67
2022/05/09 06:30:06;;;;;;;5.78;1.40;;;;;;;18.91;26.42;99648.31;5033803;28;20393;-67
2022/05/09 06:32:32;;;;;;;1.60;1.08;;;;;;;18.85;26.04;99649.19;5016657;28;20048;-68
2022/05/09 06:35:00;;;;;;;2.90;1.40;;;;;;;19.16;25.69;99642.03;5033366;28;20045;-67
2022/05/09 06:37:26;;;;;;;3.70;1.30;;;;;;;19.39;25.24;99639.69;5034599;28;20037;-68
2022/05/09 06:39:52;;;;;;;2.50;1.52;;;;;;;19.92;23.95;99637.50;5033261;28;20456;-68
2022/05/09 06:42:18;;;;;;;6.65;2.55;;;;;;;20.39;23.57;99636.16;5033234;28;20037;-68
2022/05/09 06:44:45;;;;;;;9.20;2.40;;;;;;;20.57;23.37;99661.31;5032900;28;20143;-68
2022/05/09 06:47:11;;;;;;;5.78;1.35;;;;;;;20.55;22.77;99635.56;5016802;28;20045;-68
2022/05/09 06:49:37;;;;;;;1.83;1.05;;;;;;;20.61;22.74;99653.56;5016789;28;20045;-68
2022/05/09 06:52:03;;;;;;;3.60;1.27;;;;;;;20.76;22.51;99651.34;5000248;28;20049;-68
2022/05/09 06:54:29;;;;;;;2.20;1.40;;;;;;;20.85;22.07;99604.13;4999992;28;20525;-68
2022/05/09 06:56:54;;;;;;;2.40;1.50;;;;;;;21.00;21.57;99623.50;5034086;28;20045;-68
2022/05/09 06:59:20;;;;;;;7.45;1.23;;;;;;;21.02;21.25;99643.84;5032698;28;20224;-68
2022/05/09 07:01:46;;;;;;;4.07;1.60;;;;;;;21.30;21.04;99646.84;5015807;28;20138;-68
2022/05/09 07:04:12;;;;;;;3.38;1.80;;;;;;;21.49;20.95;99655.75;4999542;28;20497;-68
2022/05/09 07:06:38;;;;;;;3.42;1.55;;;;;;;21.58;20.67;99640.84;4999568;28;20037;-67
2022/05/09 07:09:09;;;;;;;3.72;1.70;;;;;;;21.96;20.52;99651.38;5016617;28;20088;-68
2022/05/09 07:11:35;;;;;;;4.53;1.50;;;;;;;21.88;20.50;99638.19;5016047;28;20128;-68
2022/05/09 07:14:01;;;;;;;2.17;1.45;;;;;;;21.99;20.25;99654.44;5015872;28;20049;-68
2022/05/09 07:16:27;;;;;;;6.20;1.70;;;;;;;21.92;20.27;99655.59;5033579;28;20072;-68
2022/05/09 07:18:57;;;;;;;3.13;1.70;;;;;;;22.16;20.16;99658.13;5031865;28;20111;-68
2022/05/09 07:21:23;;;;;;;3.88;1.40;;;;;;;22.55;19.52;99646.69;4999733;28;20041;-68
2022/05/09 07:23:48;;;;;;;5.05;1.80;;;;;;;22.87;19.55;99657.97;5032181;28;20501;-68
2022/05/09 07:26:19;;;;;;;3.50;1.48;;;;;;;24.28;18.08;99659.78;4999179;28;20045;-69
2022/05/09 07:28:45;;;;;;;5.85;1.50;;;;;;;26.91;15.67;99649.91;5015650;28;20131;-68
2022/05/09 07:31:10;;;;;;;4.75;1.45;;;;;;;29.36;13.72;99660.41;5031796;28;20512;-68
2022/05/09 07:33:36;;;;;;;4.60;1.45;;;;;;;29.44;13.46;99669.97;5033332;28;20037;-68
2022/05/09 07:36:04;;;;;;;1.90;1.20;;;;;;;28.62;13.77;99667.66;5033158;28;20132;-68
2022/05/09 07:38:30;;;;;;;2.25;1.40;;;;;;;29.61;12.51;99670.44;5033328;28;20045;-68
2022/05/09 07:40:56;;;;;;;4.18;1.50;;;;;;;31.63;11.23;99676.69;5031343;28;20110;-69
2022/05/09 07:43:25;;;;;;;4.60;1.50;;;;;;;33.16;9.75;99639.91;5031954;28;20136;-69
2022/05/09 07:45:55;;;;;;;2.22;1.20;;;;;;;33.49;9.57;99652.44;5033143;28;20048;-69
2022/05/09 07:48:25;;;;;;;2.75;1.30;;;;;;;32.68;9.61;99666.09;5031877;28;20064;-69
2022/05/09 07:50:53;;;;;;;3.47;1.60;;;;;;;32.92;9.73;99665.97;5031421;28;20107;-69
2022/05/09 07:53:22;;;;;;;2.00;1.20;;;;;;;34.00;8.97;99663.19;5033129;28;20048;-68
2022/05/09 07:55:48;;;;;;;4.53;1.45;;;;;;;33.04;9.19;99658.03;5031662;28;20045;-67
2022/05/09 07:58:18;;;;;;;7.00;5.45;;;;;;;31.20;10.61;99652.25;5015013;28;20049;-69
2022/05/09 08:00:45;;;;;;;4.03;2.15;;;;;;;29.87;11.28;99644.59;5015020;28;20041;-69
2022/05/09 08:03:17;;;;;;;4.10;1.90;;;;;;;29.63;11.57;99629.09;5031431;28;20056;-68
2022/05/09 08:05:43;;;;;;;5.55;1.80;;;;;;;28.80;12.39;99638.94;5014494;28;20132;-68
2022/05/09 08:08:10;;;;;;;3.25;1.65;;;;;;;27.80;12.65;99651.41;5032641;28;20123;-68
2022/05/09 08:10:36;;;;;;;4.75;1.20;;;;;;;27.02;13.08;99662.50;5014842;28;20107;-68
2022/05/09 08:13:04;;;;;;;6.97;1.45;;;;;;;25.99;14.72;99643.13;5014675;28;20037;-68
2022/05/09 08:15:31;;;;;;;4.20;1.83;;;;;;;24.96;16.66;99634.22;5044042;28;20059;-68
2022/05/09 08:17:58;;;;;;;9.38;1.38;;;;;;;23.90;17.35;99664.22;5046202;28;20049;-68
2022/05/09 08:20:24;;;;;;;8.55;1.33;;;;;;;22.72;16.94;99663.06;5046120;28;20500;-69
2022/05/09 08:23:01;;;;;;;6.95;1.55;;;;;;;21.73;17.23;99677.25;5014150;28;20142;-68
2022/05/09 08:25:27;;;;;;;5.05;1.73;;;;;;;20.80;17.61;99672.31;5031825;28;20048;-68
2022/05/09 08:27:52;;;;;;;5.57;2.65;;;;;;;20.14;16.99;99664.97;5000174;28;20088;-68
2022/05/09 08:30:18;;;;;;;5.15;2.25;;;;;;;19.71;17.28;99644.06;5009666;28;20060;-67
2022/05/09 08:32:44;;;;;;;4.28;1.38;;;;;;;19.82;16.80;99656.84;5031501;28;20040;-68
2022/05/09 08:35:10;;;;;;;3.28;1.58;;;;;;;20.27;17.07;99660.31;5043684;28;20116;-68
2022/05/09 08:37:35;;;;;;;6.63;1.90;;;;;;;22.71;16.04;99656.00;5016255;28;20057;-67
2022/05/09 08:40:03;;;;;;;7.85;1.80;;;;;;;26.28;13.71;99650.75;5051311;28;20044;-68
2022/05/09 08:42:41;;;;;;;2.58;1.80;;;;;;;30.33;10.80;99667.84;4998495;28;20080;-68
2022/05/09 08:45:07;;;;;;;3.40;1.70;;;;;;;33.60;9.18;99675.09;5042127;28;20045;-69
2022/05/09 08:47:41;;;;;;;2.60;1.23;;;;;;;36.60;6.84;99666.09;5014841;28;20606;-70
2022/05/09 08:50:24;;;;;;;2.15;1.13;;;;;;;38.83;6.11;99655.34;5016335;28;20033;-70
2022/05/09 08:52:55;;;;;;;3.15;1.15;;;;;;;39.15;5.43;99621.13;5045671;28;20518;-70
2022/05/09 08:55:27;;;;;;;4.88;1.23;;;;;;;37.68;5.92;99652.56;5029808;28;20052;-70
2022/05/09 08:58:11;;;;;;;3.85;1.08;;;;;;;34.96;7.34;99634.91;5030374;28;20049;-70
2022/05/09 09:00:38;;;;;;;8.07;1.90;;;;;;;31.94;8.50;99646.91;5047967;28;20044;-70
2022/05/09 09:03:09;;;;;;;3.05;1.50;;;;;;;30.03;9.62;99648.84;5031772;28;20033;-68
2022/05/09 09:05:37;;;;;;;6.53;1.30;;;;;;;28.92;9.97;99653.94;5042865;28;20119;-68
2022/05/09 09:08:16;;;;;;;3.45;1.08;;;;;;;28.19;9.91;99656.41;5032561;28;20033;-68
2022/05/09 09:11:06;;;;;;;3.60;1.10;;;;;;;28.77;9.82;99669.56;5032295;28;20389;-69
2022/05/09 09:13:50;;;;;;;8.50;1.33;;;;;;;30.70;9.15;99667.25;5026844;28;20421;-69
2022/05/09 09:16:54;;;;;;;3.53;1.48;;;;;;;32.44;8.20;99681.91;5050814;28;20044;-69
2022/05/09 09:19:38;;;;;;;8.15;2.20;;;;;;;32.59;8.82;99673.41;5002918;28;20049;-68
2022/05/09 09:22:20;;;;;;;6.30;1.48;;;;;;;34.45;7.70;99686.97;5032134;28;20420;-68
2022/05/09 09:24:46;;;;;;;4.30;1.70;;;;;;;36.15;7.18;99686.94;5030388;28;20388;-69
2022/05/09 09:27:24;;;;;;;10.90;1.30;;;;;;;37.85;6.17;99691.28;5031425;28;20037;-68
2022/05/09 09:29:55;;;;;;;5.38;1.50;;;;;;;39.71;4.94;99700.88;5031658;28;20091;-69
2022/05/09 09:32:22;;;;;;;6.93;1.27;;;;;;;40.97;4.02;99697.50;5033059;28;20041;-69
2022/05/09 09:34:55;;;;;;;3.22;1.30;;;;;;;41.42;4.08;99690.38;5033056;28;20045;-69
2022/05/09 09:37:38;;;;;;;3.22;1.48;;;;;;;40.84;4.02;99702.34;5027702;28;20155;-69
2022/05/09 09:40:04;;;;;;;2.55;1.23;;;;;;;41.49;3.91;99706.44;5015148;28;20037;-68
2022/05/09 09:42:31;;;;;;;2.65;1.30;;;;;;;41.49;3.39;99710.06;5004302;28;20474;-69
2022/05/09 09:45:03;;;;;;;3.08;0.90;;;;;;;41.80;3.17;99694.50;5037666;28;20051;-68
2022/05/09 09:47:30;;;;;;;8.05;1.58;;;;;;;42.25;3.18;99694.72;5044324;28;20055;-69
2022/05/09 09:50:21;;;;;;;1.80;1.10;;;;;;;43.21;2.89;99711.09;5047248;28;20393;-69
2022/05/09 09:52:56;;;;;;;4.75;1.95;;;;;;;43.92;2.42;99701.91;5046385;28;20417;-70
2022/05/09 09:55:34;;;;;;;7.15;1.17;;;;;;;44.40;2.09;99700.16;5020984;28;20166;-70
2022/05/09 09:58:18;;;;;;;3.00;1.10;;;;;;;44.36;2.31;99702.13;5046412;28;20102;-70
2022/05/09 10:00:44;;;;;;;2.40;1.27;;;;;;;44.58;2.27;99704.81;5048948;28;20041;-73
2022/05/09 10:03:23;;;;;;;2.97;1.23;;;;;;;44.66;2.02;99706.53;5029195;28;20036;-72
2022/05/09 10:05:52;;;;;;;3.25;1.20;;;;;;;44.81;1.74;99703.88;5026352;28;20144;-72
2022/05/09 10:08:25;;;;;;;2.55;1.00;;;;;;;42.29;2.48;99688.03;5028784;28;20079;-70
2022/05/09 10:11:06;;;;;;;1.58;1.00;;;;;;;41.54;2.62;99689.47;5028975;28;20103;-70
2022/05/09 10:13:38;;;;;;;4.75;1.30;;;;;;;41.23;3.15;99695.84;5031938;28;20477;-69
2022/05/09 10:16:33;;;;;;;8.38;1.60;;;;;;;37.92;6.19;99705.41;5048355;28;20033;-70
2022/05/09 10:19:02;;;;;;;6.45;1.70;;;;;;;35.04;7.63;99694.03;5034211;28;20053;-69
2022/05/09 10:24:48;;;;;;;3.60;1.85;;;;;;;30.70;10.78;99694.69;5012746;28;20160;-68
2022/05/09 10:27:26;;;;;;;10.75;1.85;;;;;;;29.50;11.65;99715.38;5015856;28;20049;-69
2022/05/09 10:29:58;;;;;;;3.65;2.00;;;;;;;28.30;12.76;99712.69;5030283;28;20402;-68
2022/05/09 10:32:46;;;;;;;3.60;2.03;;;;;;;26.94;14.27;99711.25;5030145;28;20083;-69
2022/05/09 10:35:21;;;;;;;2.67;1.50;;;;;;;26.14;15.14;99711.34;5013097;28;20060;-69
2022/05/09 10:37:53;;;;;;;4.63;1.52;;;;;;;25.59;15.68;99725.13;5012735;28;20048;-68
2022/05/09 10:40:39;;;;;;;4.30;1.70;;;;;;;25.24;15.08;99707.47;5013043;28;20053;-68
2022/05/09 10:43:08;;;;;;;5.88;1.58;;;;;;;26.12;13.84;99713.50;5012501;28;20049;-68
2022/05/09 10:45:41;;;;;;;3.90;1.63;;;;;;;27.77;12.62;99708.44;5012636;28;20076;-68
2022/05/09 10:48:21;;;;;;;5.88;1.30;;;;;;;29.72;11.27;99728.72;5012718;28;20038;-69
2022/05/09 10:51:10;;;;;;;2.28;1.00;;;;;;;31.34;9.95;99724.59;5012384;28;20046;-68
2022/05/09 10:53:55;;;;;;;5.55;1.48;;;;;;;31.94;9.45;99741.16;4996206;28;20038;-68
2022/05/09 10:56:36;;;;;;;6.20;1.10;;;;;;;31.41;9.66;99725.03;5030277;28;20045;-69
2022/05/09 10:59:05;;;;;;;1.17;0.80;;;;;;;29.96;10.71;99755.19;5030162;28;20038;-68
2022/05/09 11:01:36;;;;;;;3.97;1.00;;;;;;;28.33;12.03;99734.84;5029943;28;20136;-68
2022/05/09 11:04:03;;;;;;;5.80;1.02;;;;;;;26.88;13.21;99748.56;5012370;28;20135;-68
2022/05/09 11:06:39;;;;;;;2.40;1.20;;;;;;;25.65;14.44;99709.66;5029773;28;20041;-68
2022/05/09 11:09:27;;;;;;;3.67;1.20;;;;;;;24.68;15.29;99708.53;4979411;28;20551;-68
2022/05/09 11:12:18;;;;;;;2.10;1.40;;;;;;;24.16;15.95;99726.03;4995644;28;20057;-68
2022/05/09 11:14:58;;;;;;;4.95;2.03;;;;;;;24.03;15.91;99720.94;4995446;28;20511;-68
2022/05/09 11:17:51;;;;;;;;;;;;;;;24.25;15.94;99721.88;5032405;28;20072;-67
2022/05/09 11:20:43;;;;;;;4.97;1.60;;;;;;;24.47;16.28;99725.53;5006788;28;19928;-68
2022/05/09 11:23:32;;;;;;;2.13;1.60;;;;;;;24.75;15.98;99728.22;5015207;28;20608;-68
2022/05/09 11:26:27;;;;;;;2.63;1.80;;;;;;;25.15;15.79;99737.00;5000287;28;20064;-68
2022/05/09 11:29:09;;;;;;;5.05;1.58;;;;;;;25.04;15.63;99734.34;5033828;28;20077;-68
2022/05/09 11:32:13;;;;;;;5.22;1.40;;;;;;;24.48;16.41;99746.16;5015564;28;20132;-68
2022/05/09 11:35:27;;;;;;;2.97;1.50;;;;;;;24.45;17.06;99755.66;4972218;28;20108;-67
2022/05/09 11:38:19;;;;;;;2.47;1.67;;;;;;;23.78;17.98;99769.22;4964001;28;20050;-68
2022/05/09 11:40:54;;;;;;;6.05;1.30;;;;;;;23.31;18.65;99775.78;5013920;28;20041;-68
2022/05/09 11:43:37;;;;;;;7.75;3.42;;;;;;;23.08;19.14;99782.00;5016013;28;20049;-68
2022/05/09 11:46:22;;;;;;;5.55;4.15;;;;;;;22.63;20.43;99780.88;5033278;28;20045;-68
2022/05/09 11:49:25;;;;;;;4.95;3.03;;;;;;;22.45;21.54;99791.75;5015389;28;20130;-68
2022/05/09 11:51:54;;;;;;;4.53;1.95;;;;;;;21.73;22.67;99795.38;5031892;28;20057;-68
2022/05/09 11:54:32;;;;;;;5.50;2.60;;;;;;;21.20;24.66;99786.19;5015564;28;20057;-68
2022/05/09 11:57:31;;;;;;;5.35;1.90;;;;;;;20.53;25.43;99776.13;5015208;28;20073;-68
2022/05/09 12:00:05;;;;;;;4.20;2.75;;;;;;;19.90;26.24;99774.38;4993742;28;20056;-68